Time;durP1;ratioP1;P1;durP2;ratioP2;P2;SDS_P1;SDS_P2;PMS_P1;PMS_P2;Temp;Humidity;BMP_temperature;BMP_pressure;BME280_temperature;BME280_humidity;BME280_pressure;Samples;Min_cycle;Max_cycle;Signal;HPM_P1;HPM_P2
2021/04/26 00:00:25;;;;;;;5.00;1.80;;;13.40;99.90;;;;;;5006767;28;20189;-72
2021/04/26 00:02:52;;;;;;;5.33;2.00;;;13.20;99.90;;;;;;5005258;28;20200;-71
2021/04/26 00:05:19;;;;;;;4.50;1.97;;;13.10;99.90;;;;;;5012410;28;20189;-72
2021/04/26 00:07:46;;;;;;;5.97;1.70;;;13.00;99.90;;;;;;5003582;28;20547;-72
2021/04/26 00:10:14;;;;;;;4.53;2.00;;;13.00;99.90;;;;;;4988936;28;20188;-71
2021/04/26 00:12:42;;;;;;;2.60;1.70;;;12.90;99.90;;;;;;5004495;28;20844;-72
2021/04/26 00:15:15;;;;;;;3.43;1.63;;;12.90;99.90;;;;;;5003299;28;20235;-72
2021/04/26 00:17:41;;;;;;;4.33;1.90;;;12.90;99.90;;;;;;5006927;28;20195;-71
2021/04/26 00:20:11;;;;;;;3.87;1.63;;;12.80;99.90;;;;;;4989692;28;20201;-72
2021/04/26 00:22:37;;;;;;;3.00;1.90;;;12.70;99.90;;;;;;5000946;28;20217;-72
2021/04/26 00:25:06;;;;;;;3.70;1.90;;;12.70;99.90;;;;;;4991645;28;20188;-71
2021/04/26 00:27:35;;;;;;;2.80;1.80;;;12.70;99.90;;;;;;5004698;28;20275;-72
2021/04/26 00:30:07;;;;;;;3.77;1.80;;;12.60;99.90;;;;;;5019371;28;20184;-73
2021/04/26 00:32:33;;;;;;;2.13;1.70;;;12.50;99.90;;;;;;5004962;28;21103;-70
2021/04/26 00:35:00;;;;;;;4.43;1.90;;;12.60;99.90;;;;;;4986619;28;20689;-71
2021/04/26 00:37:26;;;;;;;4.33;2.17;;;12.60;99.90;;;;;;5004396;28;20370;-71
2021/04/26 00:39:52;;;;;;;3.13;1.90;;;12.80;99.90;;;;;;5002650;28;20192;-73
2021/04/26 00:42:19;;;;;;;3.63;2.00;;;12.80;99.90;;;;;;5006328;28;20212;-74
2021/04/26 00:44:45;;;;;;;4.47;1.80;;;12.80;99.90;;;;;;5002985;28;20311;-71
2021/04/26 00:47:11;;;;;;;7.13;2.00;;;12.90;99.90;;;;;;4987259;28;20259;-71
2021/04/26 00:49:37;;;;;;;3.37;2.00;;;13.00;99.90;;;;;;4993739;28;20288;-74
2021/04/26 00:52:04;;;;;;;2.87;1.87;;;13.00;99.90;;;;;;5020892;28;20188;-74
2021/04/26 00:54:31;;;;;;;4.60;2.00;;;13.00;99.90;;;;;;5005874;28;20215;-74
2021/04/26 00:56:57;;;;;;;4.67;1.90;;;12.90;99.90;;;;;;5020655;28;20530;-71
2021/04/26 00:59:23;;;;;;;5.03;1.90;;;12.80;99.90;;;;;;5004800;28;20258;-73
2021/04/26 01:01:50;;;;;;;3.57;1.70;;;12.80;99.90;;;;;;5018999;28;20220;-71
2021/04/26 01:04:16;;;;;;;4.27;2.00;;;12.70;99.90;;;;;;5006042;28;20192;-73
2021/04/26 01:06:43;;;;;;;3.57;1.63;;;12.60;99.90;;;;;;4986382;28;20646;-72
2021/04/26 01:09:25;;;;;;;4.03;1.80;;;12.60;99.90;;;;;;5005213;28;20188;-73
2021/04/26 01:12:12;;;;;;;2.10;1.63;;;12.60;99.90;;;;;;4987411;28;20625;-71
2021/04/26 01:15:00;;;;;;;4.40;1.60;;;12.40;99.90;;;;;;5005790;28;20195;-73
2021/04/26 01:17:33;;;;;;;2.57;1.70;;;12.40;99.90;;;;;;5004569;28;20180;-72
2021/04/26 01:20:14;;;;;;;3.17;1.80;;;12.40;99.90;;;;;;5005234;28;20219;-73
2021/04/26 01:23:16;;;;;;;2.90;1.67;;;12.30;99.90;;;;;;5004038;28;20205;-72
2021/04/26 01:25:44;;;;;;;3.10;1.80;;;12.30;99.90;;;;;;4987143;28;20673;-71
2021/04/26 01:28:31;;;;;;;3.43;1.70;;;12.10;99.90;;;;;;5022015;28;20196;-73
2021/04/26 01:31:10;;;;;;;2.67;1.60;;;12.00;99.90;;;;;;5004504;28;20192;-74
2021/04/26 01:33:59;;;;;;;2.00;1.60;;;11.90;99.90;;;;;;5000891;28;20201;-75
2021/04/26 01:36:33;;;;;;;2.17;1.40;;;11.90;99.90;;;;;;5002482;28;20599;-73
2021/04/26 01:39:01;;;;;;;6.27;1.93;;;11.90;99.90;;;;;;5015030;28;20545;-75
2021/04/26 01:41:30;;;;;;;7.30;2.00;;;12.00;99.90;;;;;;5004857;28;20197;-74
2021/04/26 01:43:57;;;;;;;3.20;1.70;;;12.00;99.90;;;;;;5012925;28;20223;-73
2021/04/26 01:46:27;;;;;;;3.70;1.47;;;11.90;99.90;;;;;;4988444;28;20242;-73
2021/04/26 01:48:56;;;;;;;2.70;1.50;;;11.80;99.90;;;;;;5003585;28;20178;-73
2021/04/26 01:51:23;;;;;;;4.53;1.70;;;11.80;99.90;;;;;;5003944;28;20681;-74
2021/04/26 01:53:52;;;;;;;2.40;1.50;;;11.90;99.90;;;;;;5006986;28;20279;-71
2021/04/26 01:56:19;;;;;;;7.27;1.57;;;11.90;99.90;;;;;;4986592;28;20192;-74
2021/04/26 01:58:51;;;;;;;2.53;1.60;;;12.10;99.90;;;;;;5004206;28;20372;-71
2021/04/26 02:01:23;;;;;;;3.50;1.60;;;12.10;99.90;;;;;;5006016;28;20189;-72
2021/04/26 02:04:05;;;;;;;2.30;1.67;;;12.00;99.90;;;;;;5004184;28;20813;-71
2021/04/26 02:06:33;;;;;;;2.73;1.80;;;12.00;99.90;;;;;;5006206;28;20192;-72
2021/04/26 02:09:02;;;;;;;3.10;1.90;;;11.90;99.90;;;;;;5017068;28;20204;-73
2021/04/26 02:11:29;;;;;;;5.20;1.80;;;11.80;99.90;;;;;;4985213;28;20189;-72
2021/04/26 02:13:57;;;;;;;2.50;1.73;;;11.80;99.90;;;;;;5003507;28;20185;-73
2021/04/26 02:16:24;;;;;;;7.17;2.13;;;11.80;99.90;;;;;;5016007;28;20190;-73
2021/04/26 02:18:51;;;;;;;2.33;1.80;;;11.90;99.90;;;;;;5012365;28;20193;-74
2021/04/26 02:21:17;;;;;;;4.97;2.20;;;12.10;99.90;;;;;;5001190;28;20244;-72
2021/04/26 02:23:43;;;;;;;3.70;1.97;;;12.00;99.90;;;;;;4990967;28;20205;-73
2021/04/26 02:26:10;;;;;;;3.70;2.20;;;12.10;99.90;;;;;;4990643;28;20186;-73
2021/04/26 02:28:36;;;;;;;5.17;2.03;;;12.20;99.90;;;;;;5010577;28;20212;-72
2021/04/26 02:31:06;;;;;;;3.53;2.30;;;12.20;99.90;;;;;;4995959;28;20188;-73
2021/04/26 02:33:41;;;;;;;2.93;2.57;;;12.20;99.90;;;;;;5000285;28;20209;-73
2021/04/26 02:36:34;;;;;;;5.43;2.63;;;12.00;99.90;;;;;;5018992;28;20493;-73
2021/04/26 02:39:08;;;;;;;3.07;2.50;;;11.90;99.90;;;;;;5005372;28;20204;-73
2021/04/26 02:41:42;;;;;;;7.20;2.90;;;11.80;99.90;;;;;;5021116;28;20204;-73
2021/04/26 02:44:21;;;;;;;4.03;2.83;;;11.80;99.90;;;;;;4986169;28;20271;-73
2021/04/26 02:46:53;;;;;;;5.47;3.13;;;12.00;99.90;;;;;;5005240;28;20223;-73
2021/04/26 02:49:20;;;;;;;4.53;3.07;;;12.00;99.90;;;;;;5021010;28;20264;-73
2021/04/26 02:51:48;;;;;;;3.53;2.50;;;11.90;99.90;;;;;;5007065;28;20177;-73
2021/04/26 02:54:15;;;;;;;4.20;2.90;;;11.80;99.90;;;;;;4997753;28;20846;-72
2021/04/26 02:56:42;;;;;;;5.50;3.30;;;12.00;99.90;;;;;;4990796;28;20269;-73
2021/04/26 02:59:11;;;;;;;6.30;3.37;;;12.10;99.90;;;;;;4988495;28;20555;-73
2021/04/26 03:01:41;;;;;;;3.30;2.80;;;12.10;99.90;;;;;;5019351;28;20630;-73
2021/04/26 03:04:08;;;;;;;3.23;2.87;;;12.10;99.90;;;;;;5015755;28;20196;-73
2021/04/26 03:06:35;;;;;;;4.83;2.83;;;12.20;99.90;;;;;;5007513;28;20223;-73
2021/04/26 03:09:02;;;;;;;5.70;2.60;;;12.30;99.90;;;;;;5009971;28;20196;-73
2021/04/26 03:11:29;;;;;;;7.10;3.00;;;12.50;99.90;;;;;;5006966;28;21011;-72
2021/04/26 03:13:56;;;;;;;8.27;3.70;;;12.60;99.90;;;;;;5007647;28;20281;-72
2021/04/26 03:16:25;;;;;;;4.10;3.47;;;12.70;99.90;;;;;;5007620;28;20248;-73
2021/04/26 03:18:52;;;;;;;8.40;4.27;;;12.80;99.90;;;;;;5009626;28;20216;-73
2021/04/26 03:21:20;;;;;;;7.77;3.90;;;12.90;99.90;;;;;;4990807;28;20634;-73
2021/04/26 03:23:46;;;;;;;4.90;3.80;;;12.90;99.90;;;;;;5005053;28;20303;-73
2021/04/26 03:26:13;;;;;;;5.93;4.40;;;12.90;99.90;;;;;;5024490;28;20246;-75
2021/04/26 03:28:42;;;;;;;9.10;3.93;;;12.70;99.90;;;;;;5011453;28;20673;-73
2021/04/26 03:31:11;;;;;;;4.90;4.37;;;12.70;99.90;;;;;;5004297;28;20185;-73
2021/04/26 03:33:39;;;;;;;6.73;4.03;;;12.80;99.90;;;;;;4988141;28;20205;-73
2021/04/26 03:36:08;;;;;;;4.80;3.57;;;12.90;99.90;;;;;;5007994;28;20196;-73
2021/04/26 03:38:36;;;;;;;7.57;3.50;;;13.00;99.90;;;;;;5006437;28;20212;-73
2021/04/26 03:41:03;;;;;;;7.83;3.23;;;13.00;99.90;;;;;;5006161;28;20225;-72
2021/04/26 03:43:30;;;;;;;4.07;2.83;;;13.10;99.90;;;;;;5002704;28;20551;-73
2021/04/26 03:45:59;;;;;;;6.17;3.17;;;13.00;99.90;;;;;;5008474;28;20212;-73
2021/04/26 03:48:25;;;;;;;10.20;3.00;;;13.00;99.90;;;;;;5007314;28;20193;-73
2021/04/26 03:50:52;;;;;;;5.73;2.80;;;12.80;99.90;;;;;;5006890;28;20484;-73
2021/04/26 03:53:18;;;;;;;7.37;2.70;;;12.80;99.90;;;;;;5024505;28;20197;-73
2021/04/26 03:55:45;;;;;;;5.53;2.60;;;12.70;99.90;;;;;;5010893;28;20243;-72
2021/04/26 03:58:11;;;;;;;4.43;2.37;;;12.60;99.90;;;;;;5007751;28;20208;-72
2021/04/26 04:00:38;;;;;;;5.50;2.67;;;12.50;99.90;;;;;;5007513;28;20189;-74
2021/04/26 04:03:10;;;;;;;6.47;2.83;;;12.50;99.90;;;;;;5007069;28;20237;-73
2021/04/26 04:05:38;;;;;;;5.23;2.83;;;12.40;99.90;;;;;;5002274;28;20181;-73
2021/04/26 04:08:05;;;;;;;4.63;3.17;;;12.20;99.90;;;;;;5006654;28;20494;-73
2021/04/26 04:10:33;;;;;;;5.50;2.87;;;12.20;99.90;;;;;;5002772;28;20195;-73
2021/04/26 04:12:59;;;;;;;7.87;2.87;;;12.10;99.90;;;;;;5008497;28;20886;-73
2021/04/26 04:15:26;;;;;;;3.97;2.80;;;12.20;99.90;;;;;;5006133;28;20741;-73
2021/04/26 04:17:53;;;;;;;5.20;3.00;;;12.50;99.90;;;;;;5003902;28;20199;-73
2021/04/26 04:20:19;;;;;;;4.43;3.17;;;12.70;99.90;;;;;;5004538;28;20653;-73
2021/04/26 04:22:46;;;;;;;4.33;3.20;;;12.50;99.90;;;;;;5007953;28;20670;-72
2021/04/26 04:25:13;;;;;;;5.83;3.37;;;12.40;99.90;;;;;;5003455;28;20196;-73
2021/04/26 04:27:40;;;;;;;3.70;2.80;;;12.50;99.90;;;;;;5012696;28;20791;-74
2021/04/26 04:30:10;;;;;;;5.30;2.97;;;12.60;99.90;;;;;;5007549;28;20669;-73
2021/04/26 04:32:36;;;;;;;3.67;3.00;;;12.70;99.90;;;;;;4987529;28;20197;-73
2021/04/26 04:35:04;;;;;;;5.00;2.80;;;12.90;99.90;;;;;;4989393;28;20216;-72
2021/04/26 04:37:30;;;;;;;4.73;3.43;;;13.00;99.90;;;;;;4990885;28;20240;-72
2021/04/26 04:39:57;;;;;;;4.67;3.13;;;13.10;99.90;;;;;;5004219;28;20199;-72
2021/04/26 04:42:23;;;;;;;5.07;3.27;;;13.00;99.90;;;;;;5019933;28;20567;-73
2021/04/26 04:44:49;;;;;;;7.20;3.30;;;13.10;99.90;;;;;;4984150;28;20212;-72
2021/04/26 04:47:16;;;;;;;6.97;3.83;;;13.30;99.90;;;;;;4992178;28;20193;-73
2021/04/26 04:49:42;;;;;;;8.00;3.67;;;13.40;99.90;;;;;;4992852;28;20188;-72
2021/04/26 04:52:08;;;;;;;6.53;3.70;;;13.50;99.90;;;;;;4991415;28;20200;-72
2021/04/26 04:54:53;;;;;;;6.10;3.87;;;13.60;99.90;;;;;;4988785;28;20275;-74
2021/04/26 04:57:19;;;;;;;4.83;3.50;;;13.70;99.90;;;;;;5004613;28;20201;-73
2021/04/26 04:59:46;;;;;;;4.77;3.40;;;13.80;99.90;;;;;;5005032;28;20199;-73
2021/04/26 05:02:12;;;;;;;3.87;3.00;;;13.90;99.90;;;;;;5006100;28;20228;-72
2021/04/26 05:04:39;;;;;;;5.97;3.20;;;14.10;99.90;;;;;;5003661;28;20213;-73
2021/04/26 05:07:05;;;;;;;7.23;3.40;;;14.20;99.90;;;;;;5001163;28;20830;-73
2021/04/26 05:09:31;;;;;;;5.63;3.60;;;14.40;99.90;;;;;;5003002;28;20735;-73
2021/04/26 05:11:59;;;;;;;5.57;3.57;;;14.70;99.90;;;;;;5001687;28;20188;-74
2021/04/26 05:14:27;;;;;;;8.87;4.33;;;15.00;99.90;;;;;;5006815;28;20259;-76
2021/04/26 05:16:55;;;;;;;7.20;4.50;;;15.20;99.90;;;;;;5005094;28;20189;-75
2021/04/26 05:19:21;;;;;;;7.80;4.30;;;15.40;99.90;;;;;;5005533;28;20192;-76
2021/04/26 05:21:48;;;;;;;11.10;5.30;;;15.60;99.90;;;;;;5005400;28;20932;-76
2021/04/26 05:24:15;;;;;;;9.50;5.53;;;15.70;99.90;;;;;;5004874;28;20193;-74
2021/04/26 05:26:41;;;;;;;10.63;5.40;;;15.80;99.90;;;;;;4991634;28;20642;-74
2021/04/26 05:29:08;;;;;;;6.83;4.67;;;15.80;99.90;;;;;;5006970;28;20200;-74
2021/04/26 05:31:35;;;;;;;8.27;5.80;;;16.00;99.90;;;;;;4989563;28;20286;-74
2021/04/26 05:34:01;;;;;;;9.57;5.47;;;16.00;99.90;;;;;;5002354;28;20237;-74
2021/04/26 05:36:28;;;;;;;11.90;5.80;;;16.00;99.90;;;;;;5005562;28;20191;-75
2021/04/26 05:38:54;;;;;;;9.07;5.00;;;16.10;99.90;;;;;;5002702;28;20549;-75
2021/04/26 05:41:20;;;;;;;14.33;5.60;;;16.20;99.90;;;;;;4987859;28;20188;-75
2021/04/26 05:43:46;;;;;;;11.43;5.60;;;16.30;99.90;;;;;;5013050;28;20213;-75
2021/04/26 05:46:14;;;;;;;9.80;5.90;;;16.40;99.90;;;;;;5001682;28;20742;-75
2021/04/26 05:48:41;;;;;;;10.93;5.73;;;16.50;99.90;;;;;;5019447;28;20189;-75
2021/04/26 05:51:08;;;;;;;11.27;5.90;;;16.50;99.90;;;;;;5002579;28;20205;-76
2021/04/26 05:53:34;;;;;;;9.73;6.13;;;16.70;99.90;;;;;;4987637;28;20180;-75
2021/04/26 05:56:01;;;;;;;21.47;7.10;;;16.70;99.90;;;;;;4987824;28;20208;-76
2021/04/26 05:58:28;;;;;;;17.37;8.27;;;16.80;99.90;;;;;;5008078;28;20219;-75
2021/04/26 06:00:55;;;;;;;15.03;8.10;;;17.00;99.90;;;;;;5008947;28;20295;-74
2021/04/26 06:03:22;;;;;;;19.17;8.13;;;17.00;99.90;;;;;;4991909;28;20216;-76
2021/04/26 06:05:49;;;;;;;21.80;7.33;;;16.90;99.90;;;;;;5006466;28;20224;-75
2021/04/26 06:08:15;;;;;;;19.87;8.50;;;16.90;99.90;;;;;;5000831;28;20193;-73
2021/04/26 06:10:42;;;;;;;17.43;7.20;;;17.00;99.90;;;;;;5002831;28;20196;-75
2021/04/26 06:13:08;;;;;;;14.63;7.23;;;17.10;99.90;;;;;;5020673;28;20197;-74
2021/04/26 06:15:34;;;;;;;11.37;5.63;;;17.20;99.90;;;;;;5008657;28;20200;-76
2021/04/26 06:18:16;;;;;;;14.93;7.00;;;17.20;99.90;;;;;;5007307;28;20229;-73
2021/04/26 06:20:46;;;;;;;19.50;6.63;;;17.10;99.90;;;;;;5005616;28;20704;-76
2021/04/26 06:23:13;;;;;;;17.97;7.53;;;17.40;99.90;;;;;;5007276;28;20225;-75
2021/04/26 06:25:40;;;;;;;18.50;7.57;;;17.40;99.90;;;;;;5008614;28;20196;-75
2021/04/26 06:28:08;;;;;;;23.03;9.80;;;17.50;99.90;;;;;;5007791;28;20652;-71
2021/04/26 06:30:36;;;;;;;20.30;10.50;;;17.50;99.90;;;;;;5006960;28;20199;-75
2021/04/26 06:33:04;;;;;;;16.63;9.30;;;17.60;99.90;;;;;;4992998;28;20490;-75
2021/04/26 06:35:31;;;;;;;17.87;8.00;;;17.60;99.90;;;;;;5005740;28;20811;-75
2021/04/26 06:37:58;;;;;;;15.87;6.80;;;17.70;99.90;;;;;;5008646;28;20779;-75
2021/04/26 06:40:25;;;;;;;9.87;5.57;;;17.70;99.90;;;;;;5003637;28;20299;-71
2021/04/26 06:42:51;;;;;;;12.80;5.93;;;17.70;99.90;;;;;;4992969;28;20245;-72
2021/04/26 06:45:21;;;;;;;13.90;5.50;;;17.70;99.90;;;;;;4985035;28;20189;-72
2021/04/26 06:47:49;;;;;;;12.23;5.33;;;17.90;99.90;;;;;;5003672;28;20193;-71
2021/04/26 06:50:18;;;;;;;17.77;6.00;;;18.20;99.90;;;;;;5005827;28;20188;-72
2021/04/26 06:52:49;;;;;;;15.70;5.80;;;18.20;99.90;;;;;;5009402;28;20280;-70
2021/04/26 06:55:17;;;;;;;12.17;5.70;;;18.30;99.90;;;;;;5004510;28;20193;-71
2021/04/26 06:57:44;;;;;;;14.37;6.37;;;18.30;99.90;;;;;;5007515;28;20201;-71
2021/04/26 07:00:12;;;;;;;11.80;5.43;;;18.30;99.90;;;;;;5003005;28;20204;-72
2021/04/26 07:02:38;;;;;;;14.37;5.13;;;18.40;99.90;;;;;;4990118;28;20616;-73
2021/04/26 07:05:09;;;;;;;11.53;5.70;;;18.90;99.90;;;;;;5002665;28;20919;-72
2021/04/26 07:07:35;;;;;;;10.13;5.40;;;18.90;99.90;;;;;;5005503;28;20664;-71
2021/04/26 07:10:09;;;;;;;12.23;5.30;;;18.90;99.90;;;;;;4995013;28;20193;-72
2021/04/26 07:12:37;;;;;;;12.97;4.97;;;18.90;99.90;;;;;;5020521;28;20199;-73
2021/04/26 07:15:09;;;;;;;13.97;5.40;;;19.00;99.90;;;;;;5004839;28;20255;-71
2021/04/26 07:17:37;;;;;;;13.07;4.77;;;19.30;99.90;;;;;;5004105;28;20641;-71
2021/04/26 07:20:10;;;;;;;13.77;5.57;;;19.40;99.90;;;;;;5002148;28;20532;-71
2021/04/26 07:22:37;;;;;;;15.70;5.40;;;19.30;99.90;;;;;;5004302;28;20214;-72
2021/04/26 07:25:05;;;;;;;11.70;4.60;;;19.30;99.90;;;;;;4996361;28;21649;-72
2021/04/26 07:27:31;;;;;;;12.47;3.83;;;19.40;99.90;;;;;;5007391;28;20823;-74
2021/04/26 07:29:58;;;;;;;6.30;3.43;;;19.60;99.90;;;;;;5005605;28;20192;-71
2021/04/26 07:32:24;;;;;;;11.97;4.43;;;19.60;99.90;;;;;;5011197;28;20676;-72
2021/04/26 07:34:51;;;;;;;12.47;4.90;;;19.60;99.90;;;;;;5017920;28;20312;-74
2021/04/26 07:37:18;;;;;;;12.23;4.53;;;19.60;99.90;;;;;;5006326;28;20197;-74
2021/04/26 07:39:46;;;;;;;13.73;5.07;;;19.70;99.90;;;;;;4991823;28;20193;-72
2021/04/26 07:42:12;;;;;;;14.43;6.53;;;19.80;99.90;;;;;;4988995;28;20213;-73
2021/04/26 07:44:39;;;;;;;19.10;6.37;;;20.10;99.90;;;;;;5006878;28;20197;-74
2021/04/26 07:47:07;;;;;;;21.80;8.00;;;20.10;99.90;;;;;;5006303;28;20189;-74
2021/04/26 07:49:33;;;;;;;20.03;6.27;;;20.40;99.90;;;;;;5019876;28;20228;-73
2021/04/26 07:52:00;;;;;;;18.20;7.40;;;20.40;99.90;;;;;;5010375;28;20193;-74
2021/04/26 07:54:27;;;;;;;25.07;7.73;;;20.40;99.90;;;;;;5007652;28;20546;-74
2021/04/26 07:56:54;;;;;;;24.53;7.50;;;20.50;99.90;;;;;;5003720;28;20709;-74
2021/04/26 07:59:20;;;;;;;20.67;7.97;;;20.40;99.90;;;;;;4992662;28;20197;-74
2021/04/26 08:01:47;;;;;;;18.33;7.80;;;20.50;99.90;;;;;;5004256;28;20184;-73
2021/04/26 08:04:14;;;;;;;19.67;7.17;;;20.60;99.90;;;;;;5008161;28;20225;-74
2021/04/26 08:06:41;;;;;;;16.63;6.90;;;20.60;99.90;;;;;;4991893;28;20216;-72
2021/04/26 08:09:10;;;;;;;22.73;8.23;;;20.40;99.90;;;;;;5004908;28;20653;-74
2021/04/26 08:11:37;;;;;;;19.60;7.33;;;20.50;99.90;;;;;;4988759;28;20193;-74
2021/04/26 08:14:03;;;;;;;20.00;7.13;;;20.50;99.90;;;;;;5001886;28;20215;-74
2021/04/26 08:16:31;;;;;;;21.63;8.27;;;20.70;99.90;;;;;;4990169;28;20606;-74
2021/04/26 08:18:57;;;;;;;20.27;8.00;;;20.80;99.90;;;;;;5001081;28;20251;-74
2021/04/26 08:21:24;;;;;;;21.07;8.10;;;20.90;99.90;;;;;;5003640;28;20197;-74
2021/04/26 08:23:53;;;;;;;19.83;7.80;;;20.80;99.90;;;;;;4985715;28;20225;-75
2021/04/26 08:26:19;;;;;;;29.80;9.27;;;20.90;99.90;;;;;;5001338;28;20209;-74
2021/04/26 08:28:46;;;;;;;23.27;9.07;;;20.80;99.90;;;;;;5001068;28;20276;-74
2021/04/26 08:31:12;;;;;;;22.63;9.67;;;20.90;99.90;;;;;;4997385;28;20625;-74
2021/04/26 08:33:40;;;;;;;26.17;9.13;;;21.00;99.90;;;;;;4998684;28;20212;-74
2021/04/26 08:36:08;;;;;;;22.73;8.70;;;21.00;99.90;;;;;;5018201;28;20217;-71
2021/04/26 08:38:35;;;;;;;23.70;9.23;;;21.10;99.90;;;;;;5003328;28;20189;-74
2021/04/26 08:41:02;;;;;;;26.13;8.70;;;21.10;99.90;;;;;;4986927;28;20290;-73
2021/04/26 08:43:29;;;;;;;24.70;9.27;;;21.00;99.90;;;;;;5020401;28;20594;-72
2021/04/26 08:46:35;;;;;;;20.93;8.33;;;21.20;99.90;;;;;;4986587;28;20196;-72
2021/04/26 08:49:01;;;;;;;18.20;8.47;;;21.30;99.90;;;;;;5003793;28;20224;-72
2021/04/26 08:51:30;;;;;;;22.73;10.43;;;21.50;99.90;;;;;;4989631;28;20251;-74
2021/04/26 08:54:19;;;;;;;28.20;10.60;;;21.60;99.90;;;;;;5005983;28;20200;-73
2021/04/26 08:56:46;;;;;;;29.77;10.80;;;21.70;99.90;;;;;;5002720;28;20193;-74
2021/04/26 08:59:14;;;;;;;24.07;10.73;;;21.20;99.90;;;;;;4997701;28;20747;-72
2021/04/26 09:01:57;;;;;;;32.03;10.03;;;21.10;99.90;;;;;;5003946;28;20704;-73
2021/04/26 09:04:23;;;;;;;25.23;9.70;;;21.30;99.90;;;;;;4999728;28;20201;-74
2021/04/26 09:07:01;;;;;;;27.40;9.63;;;21.20;99.90;;;;;;5020062;28;20660;-73
2021/04/26 09:10:11;;;;;;;31.13;11.03;;;21.10;99.90;;;;;;5005299;28;20275;-73
2021/04/26 09:12:37;;;;;;;29.93;10.27;;;21.30;99.90;;;;;;4986055;28;20204;-74
2021/04/26 09:15:05;;;;;;;29.60;10.80;;;21.40;99.90;;;;;;5002243;28;20228;-71
2021/04/26 09:17:44;;;;;;;20.73;9.80;;;21.80;99.90;;;;;;5001303;28;20915;-72
2021/04/26 09:20:17;;;;;;;20.87;9.60;;;21.50;99.90;;;;;;5001783;28;20197;-71
2021/04/26 09:23:01;;;;;;;31.27;10.37;;;21.80;99.90;;;;;;4989961;28;20800;-72
2021/04/26 09:25:33;;;;;;;29.30;10.30;;;21.90;99.90;;;;;;5003017;28;20283;-72
2021/04/26 09:28:19;;;;;;;23.67;9.47;;;22.00;99.90;;;;;;5001267;28;20840;-72
2021/04/26 09:30:57;;;;;;;22.60;9.03;;;22.20;99.90;;;;;;5006405;28;20514;-73
2021/04/26 09:33:34;;;;;;;30.53;10.30;;;22.10;99.90;;;;;;5007363;28;20207;-73
2021/04/26 09:36:08;;;;;;;28.63;10.63;;;22.20;99.90;;;;;;5006267;28;20696;-73
2021/04/26 09:38:39;;;;;;;24.17;10.37;;;22.00;99.90;;;;;;4990004;28;20668;-73
2021/04/26 09:41:21;;;;;;;27.23;10.50;;;22.20;99.90;;;;;;5003483;28;20197;-73
2021/04/26 09:44:02;;;;;;;28.63;10.70;;;22.20;99.90;;;;;;5023232;28;20216;-73
2021/04/26 09:46:51;;;;;;;25.60;9.97;;;22.30;99.90;;;;;;5005057;28;20280;-74
2021/04/26 09:49:26;;;;;;;27.73;10.43;;;22.40;99.90;;;;;;5006544;28;20185;-72
2021/04/26 09:52:12;;;;;;;24.57;9.33;;;22.20;99.90;;;;;;5009939;28;20565;-74
2021/04/26 09:54:42;;;;;;;27.27;10.17;;;22.60;99.90;;;;;;5006455;28;20573;-72
2021/04/26 09:57:09;;;;;;;23.80;9.70;;;23.10;99.90;;;;;;5006894;28;20197;-71
2021/04/26 09:59:36;;;;;;;23.57;10.30;;;23.20;99.90;;;;;;5009187;28;20642;-75
2021/04/26 10:02:09;;;;;;;23.73;9.83;;;23.10;99.90;;;;;;5002000;28;20197;-75
2021/04/26 10:04:37;;;;;;;27.70;9.93;;;23.10;99.90;;;;;;5002570;28;20185;-73
2021/04/26 10:07:04;;;;;;;31.90;9.07;;;22.90;99.90;;;;;;4989909;28;20255;-73
2021/04/26 10:09:31;;;;;;;24.43;9.47;;;23.10;99.90;;;;;;5005038;28;20189;-73
2021/04/26 10:12:00;;;;;;;27.47;9.63;;;23.20;99.90;;;;;;4996484;28;20193;-74
2021/04/26 10:14:26;;;;;;;23.17;9.17;;;23.50;99.90;;;;;;5003902;28;20300;-72
2021/04/26 10:17:08;;;;;;;23.60;9.83;;;23.60;99.90;;;;;;5019876;28;20208;-74
2021/04/26 10:19:54;;;;;;;22.60;8.63;;;23.70;99.90;;;;;;5000427;28;20255;-71
2021/04/26 10:22:45;;;;;;;27.02;8.02;;;23.90;99.90;;;;;;4987743;28;21368;-73
2021/04/26 10:25:14;;;;;;;20.98;7.95;;;24.30;99.90;;;;;;4990358;28;20189;-75
2021/04/26 10:27:44;;;;;;;23.10;8.70;;;24.40;99.90;;;;;;5004866;28;20185;-74
2021/04/26 10:30:17;;;;;;;25.80;9.05;;;24.50;99.90;;;;;;5003069;28;20190;-76
2021/04/26 10:33:03;;;;;;;24.23;8.73;;;24.40;99.90;;;;;;5004813;28;20201;-75
2021/04/26 10:35:51;;;;;;;29.02;10.27;;;24.40;99.90;;;;;;5001837;28;20212;-74
2021/04/26 10:38:39;;;;;;;22.30;8.32;;;24.20;99.90;;;;;;5006045;28;20788;-74
2021/04/26 10:41:14;;;;;;;23.48;8.30;;;24.30;99.90;;;;;;5001743;28;20537;-74
2021/04/26 10:43:52;;;;;;;24.38;8.52;;;24.40;99.90;;;;;;4988690;28;20220;-74
2021/04/26 10:46:20;;;;;;;23.30;7.93;;;24.20;99.90;;;;;;5003450;28;20646;-75
2021/04/26 10:49:07;;;;;;;34.53;9.10;;;24.50;99.90;;;;;;4986105;28;20181;-74
2021/04/26 10:51:38;;;;;;;20.58;9.20;;;24.60;99.90;;;;;;4985629;28;20193;-74
2021/04/26 10:54:06;;;;;;;21.50;8.33;;;24.50;99.90;;;;;;4997939;28;20200;-74
2021/04/26 10:56:34;;;;;;;16.87;7.87;;;24.20;99.90;;;;;;5018201;28;20198;-73
2021/04/26 10:59:23;;;;;;;21.13;7.97;;;24.00;99.90;;;;;;5002937;28;20185;-73
2021/04/26 11:01:52;;;;;;;20.30;7.77;;;23.70;99.90;;;;;;4984428;28;20511;-74
2021/04/26 11:04:20;;;;;;;24.47;7.70;;;23.70;99.90;;;;;;4985192;28;20212;-73
2021/04/26 11:07:21;;;;;;;20.42;6.82;;;23.70;99.90;;;;;;5005415;28;20189;-73
2021/04/26 11:09:49;;;;;;;17.15;6.82;;;24.00;99.90;;;;;;4987110;28;20214;-74
2021/04/26 11:12:33;;;;;;;23.33;8.00;;;24.10;99.90;;;;;;5015798;28;21040;-73
2021/04/26 11:15:16;;;;;;;22.17;8.27;;;23.60;99.90;;;;;;5020877;28;20188;-74
2021/04/26 11:17:44;;;;;;;27.30;8.30;;;23.60;99.90;;;;;;5005493;28;20418;-73
2021/04/26 11:20:23;;;;;;;21.57;7.60;;;23.60;99.90;;;;;;4988996;28;20200;-74
2021/04/26 11:22:53;;;;;;;19.63;7.30;;;23.80;99.90;;;;;;5011586;28;20212;-74
2021/04/26 11:25:41;;;;;;;16.13;6.17;;;23.40;99.90;;;;;;4993317;28;20281;-75
2021/04/26 11:28:11;;;;;;;15.47;6.20;;;23.90;99.90;;;;;;5006323;28;20271;-74
2021/04/26 11:30:50;;;;;;;18.17;6.23;;;23.80;99.90;;;;;;5001523;28;20515;-73
2021/04/26 11:33:19;;;;;;;23.00;6.10;;;23.50;99.90;;;;;;5004614;28;20204;-73
2021/04/26 11:36:11;;;;;;;15.57;6.00;;;23.70;99.90;;;;;;4992214;28;20519;-74
2021/04/26 11:38:40;;;;;;;16.07;5.57;;;24.10;99.90;;;;;;4996631;28;20262;-71
2021/04/26 11:41:07;;;;;;;17.63;5.50;;;24.10;99.90;;;;;;4998924;28;20190;-72
2021/04/26 11:43:42;;;;;;;21.75;5.90;;;24.30;99.90;;;;;;4999399;28;20217;-74
2021/04/26 11:46:09;;;;;;;17.20;7.00;;;24.40;99.90;;;;;;5016934;28;20879;-75
2021/04/26 11:48:39;;;;;;;20.73;7.50;;;24.30;99.90;;;;;;4999344;28;20670;-75
2021/04/26 11:51:06;;;;;;;25.93;7.83;;;24.10;99.90;;;;;;5000465;28;20747;-73
2021/04/26 11:53:33;;;;;;;32.10;8.63;;;24.10;99.90;;;;;;4982501;28;20623;-73
2021/04/26 11:56:29;;;;;;;20.20;7.70;;;23.90;99.90;;;;;;5001117;28;20580;-75
2021/04/26 11:59:07;;;;;;;22.63;6.57;;;23.80;99.90;;;;;;4988707;28;20189;-73
2021/04/26 12:01:47;;;;;;;20.27;7.30;;;23.80;99.90;;;;;;4998616;28;20215;-72
2021/04/26 12:04:30;;;;;;;23.33;7.57;;;23.40;99.90;;;;;;4984297;28;20278;-74
2021/04/26 12:06:57;;;;;;;22.93;7.13;;;23.50;99.90;;;;;;4996997;28;20223;-76
2021/04/26 12:09:23;;;;;;;16.57;6.37;;;23.30;99.90;;;;;;5002426;28;20520;-73
2021/04/26 12:12:03;;;;;;;22.53;6.23;;;23.50;99.90;;;;;;4999337;28;20189;-75
2021/04/26 12:15:25;;;;;;;18.20;6.07;;;23.30;99.90;;;;;;4998832;28;20185;-72
2021/04/26 12:18:03;;;;;;;20.03;6.00;;;23.20;99.90;;;;;;4980555;28;20200;-74
2021/04/26 12:20:34;;;;;;;16.20;4.90;;;23.20;99.90;;;;;;5008636;28;20250;-75
2021/04/26 12:23:04;;;;;;;16.07;5.57;;;23.30;99.90;;;;;;5002722;28;20240;-74
2021/04/26 12:25:41;;;;;;;12.53;5.57;;;23.20;99.90;;;;;;5000786;28;20199;-73
2021/04/26 12:28:10;;;;;;;16.27;5.07;;;23.20;99.90;;;;;;5014275;28;20280;-72
2021/04/26 12:30:52;;;;;;;12.60;5.00;;;23.00;99.90;;;;;;5002040;28;20239;-74
2021/04/26 12:33:22;;;;;;;19.27;6.67;;;23.00;99.90;;;;;;4998483;28;20278;-73
2021/04/26 12:35:49;;;;;;;24.27;7.10;;;23.10;99.90;;;;;;5006786;28;20197;-74
2021/04/26 12:38:15;;;;;;;18.97;6.33;;;23.10;99.90;;;;;;4986203;28;20196;-72
2021/04/26 12:40:42;;;;;;;16.97;6.90;;;23.00;99.90;;;;;;4997329;28;20188;-74
2021/04/26 12:43:12;;;;;;;23.53;7.20;;;22.70;99.90;;;;;;4987868;28;20236;-74
2021/04/26 12:45:42;;;;;;;18.33;6.57;;;22.70;99.90;;;;;;4987776;28;20188;-73
2021/04/26 12:48:14;;;;;;;16.63;6.80;;;22.70;99.90;;;;;;4996891;28;20204;-74
2021/04/26 12:50:46;;;;;;;17.23;6.87;;;22.80;99.90;;;;;;5002726;28;20965;-76
2021/04/26 12:53:25;;;;;;;16.20;6.03;;;22.90;99.90;;;;;;5004292;28;20196;-77
2021/04/26 12:56:03;;;;;;;21.77;6.83;;;22.90;99.90;;;;;;4997427;28;20281;-74
2021/04/26 12:58:36;;;;;;;22.83;6.87;;;22.90;99.90;;;;;;5009743;28;20215;-74